Flight Track Log - Related Links

Times and Time Zones

All times are in EDT time to prevent confusion due to time zone crossing. See the RPA3161 flight status page for this flight to view local times or setup timezone preferences in your user account.

Time Position Orientation Groundspeed Altitude Reporting Facility
EDT Latitude Longitude Course Direction KTS MPH feet Rate Location/Type
Mon 12:25:00 PM 44.1690 -73.2616 195° South  Level FlightAware Approximate
Mon 12:26:00 PM 44.0692 -73.2990 195° South  Level FlightAware Approximate
Mon 12:26:19 PM 44.3847 -73.3464 198° South 282 325 5,400  Level Boston Center
Mon 12:27:00 PM 43.9688 -73.3327 194° South  Level FlightAware Approximate
Mon 12:27:19 PM 44.3200 -73.3947 208° Southwest 271 312 7,500  Level Boston Center
Mon 12:28:00 PM 43.8687 -73.3681 195° South  Level FlightAware Approximate
Mon 12:28:19 PM 44.2403 -73.4369 201° Southwest 271 312 10,900  Level Boston Center
Mon 12:29:00 PM 43.7689 -73.4055 195° South  Level FlightAware Approximate
Mon 12:29:19 PM 44.1550 -73.4414 182° South 300 345 13,300  Level Boston Center
Mon 12:30:00 PM 43.6692 -73.4428 195° South  Level FlightAware Approximate
Mon 12:30:19 PM 44.0944 -73.4461 183° South 311 358 15,200  Level Boston Center
Mon 12:31:00 PM 43.5708 -73.4861 198° South  Level FlightAware Approximate
Mon 12:31:19 PM 43.9819 -73.4528 182° South 316 364 18,600  Level Boston Center
Mon 12:32:30 PM 43.8983 -73.4803 193° South 316 364 20,700 2,000 Climbing Boston Center
Mon 12:33:31 PM 43.8039 -73.5475 207° Southwest 312 359 23,000 1,934 Climbing Boston Center
Mon 12:34:31 PM 43.7344 -73.6211 217° Southwest 322 371 24,600 1,750 Climbing Boston Center
Mon 12:35:31 PM 43.6689 -73.6944 219° Southwest 331 381 26,500 1,603 Climbing Boston Center
Mon 12:36:42 PM 43.5953 -73.7644 215° Southwest 331 381 28,100 1,591 Climbing Boston Center
Mon 12:37:43 PM 43.5047 -73.8483 214° Southwest 331 381 30,000 942 Climbing Boston Center
Mon 12:38:43 PM 43.4047 -73.8461 179° South 324 373 30,000 200 Level Boston Center
Mon 12:39:43 PM 43.2922 -73.8292 174° South 348 400 30,400 800 Climbing Boston Center
Mon 12:40:43 PM 43.1883 -73.8156 175° South 364 419 31,600 800 Climbing Boston Center
Mon 12:41:43 PM 43.0842 -73.8017 174° South 376 433 32,000 200 Climbing Boston Center
Mon 12:42:43 PM 42.9842 -73.7911 176° South 376 433 32,000  Level Boston Center
Mon 12:43:43 PM 42.8844 -73.7775 174° South 370 426 32,000  Level Boston Center
Mon 12:44:43 PM 42.7844 -73.7639 174° South 364 419 32,000  Level Boston Center
Mon 12:45:43 PM 42.6806 -73.7533 176° South 370 426 32,000  Level Boston Center
Mon 12:46:43 PM 42.5908 -73.7458 176° South 370 426 32,000  Level Boston Center
Mon 12:47:43 PM 42.4889 -73.7325 174° South 364 419 32,000  Level Boston Center
Mon 12:48:43 PM 42.3892 -73.7192 174° South 364 419 32,000  Level Boston Center
Mon 12:49:43 PM 42.2869 -73.7031 173° South 369 425 32,000  Level Boston Center
Mon 12:50:43 PM 42.1850 -73.6897 174° South 369 425 32,000  Level Boston Center
Mon 12:51:43 PM 42.0831 -73.6792 176° South 369 425 32,000  Level Boston Center
Mon 12:52:43 PM 41.9789 -73.6689 176° South 374 430 32,000  Level Boston Center
Mon 12:53:43 PM 41.8750 -73.6583 176° South 374 430 32,000  Level Boston Center
Mon 12:54:43 PM 41.7731 -73.6425 173° South 374 430 32,000  Level Boston Center
Mon 12:55:43 PM 41.6714 -73.5933 160° South 374 430 32,000  Level Boston Center
Mon 12:56:43 PM 41.5717 -73.5472 161° South 374 430 32,000 -37 Level Boston Center
Mon 12:58:27 PM 41.4006 -73.5178 173° South 368 423 31,900  Descending New York Center
Mon 12:59:26 PM 41.3139 -73.5667 203° Southwest 345 397 32,000 50 Climbing New York Center
Mon 01:00:27 PM 41.2475 -73.6467 222° Southwest 319 367 32,000  Level New York Center
Mon 01:01:27 PM 41.1911 -73.7378 231° Southwest 319 367 32,000  Level New York Center
Mon 01:02:25 PM 41.1364 -73.8319 232° Southwest 319 367 32,000  Level New York Center
Mon 01:03:25 PM 41.0819 -73.9231 232° Southwest 325 374 32,000  Level New York Center
Mon 01:04:25 PM 41.0253 -74.0167 231° Southwest 325 374 32,000  Level New York Center
Mon 01:05:27 PM 40.9706 -74.1100 232° Southwest 330 380 32,000 -246 Level New York Center
Mon 01:06:27 PM 40.9119 -74.2006 229° Southwest 330 380 31,500 -1,119 Descending New York Center
Mon 01:07:25 PM 40.8594 -74.2856 231° Southwest 330 380 29,800 -1,780 Descending New York Center
Mon 01:08:25 PM 40.8000 -74.3842 231° Southwest 335 386 28,000 -900 Descending New York Center
Mon 01:09:25 PM 40.7450 -74.4769 232° Southwest 335 386 28,000  Level New York Center
Mon 01:10:26 PM 40.6881 -74.5725 232° Southwest 335 386 28,000 -344 Level New York Center
Mon 01:11:27 PM 40.6286 -74.6647 230° Southwest 335 386 27,300 -807 Descending New York Center
Mon 01:12:25 PM 40.5714 -74.7572 231° Southwest 335 386 26,400 -966 Descending New York Center
Mon 01:13:25 PM 40.5100 -74.8436 227° Southwest 335 386 25,400 -942 Descending New York Center
Mon 01:14:26 PM 40.4508 -74.9328 229° Southwest 335 386 24,500 -893 Descending New York Center
Mon 01:15:26 PM 40.3894 -75.0164 226° Southwest 330 380 23,600 -893 Descending New York Center
Mon 01:16:27 PM 40.3322 -75.0972 227° Southwest 325 374 22,700 -793 Descending New York Center
Mon 01:17:27 PM 40.2728 -75.1833 228° Southwest 320 368 22,000 -350 Descending New York Center
Mon 01:18:27 PM 40.2133 -75.2667 227° Southwest 320 368 22,000  Level New York Center
Mon 01:19:26 PM 40.1558 -75.3497 228° Southwest 320 368 22,000  Level New York Center
Mon 01:20:25 PM 40.0986 -75.4303 227° Southwest 315 362 22,000  Level New York Center
Mon 01:21:26 PM 40.0611 -75.5306 244° Southwest 310 357 22,000  Level New York Center
Mon 01:22:26 PM 40.0258 -75.6339 246° West 310 357 22,000  Level New York Center
Mon 01:23:25 PM 39.9881 -75.7369 244° Southwest 317 365 22,000  Level New York Center
Mon 01:24:25 PM 39.9525 -75.8403 246° West 317 365 22,000  Level New York Center
Mon 01:25:25 PM 39.9189 -75.9406 246° West 317 365 22,000  Level New York Center
Mon 01:26:26 PM 39.8831 -76.0436 246° West 317 365 22,000 -787 Level New York Center
Mon 01:27:27 PM 39.8369 -76.1428 239° Southwest 312 359 20,400 -1,664 Descending New York Center
Mon 01:28:25 PM 39.7733 -76.2081 218° Southwest 298 343 18,700 -1,780 Descending New York Center
Mon 01:29:25 PM 39.6933 -76.2694 211° Southwest 304 350 16,900 -1,664 Descending New York Center
Mon 01:30:24 PM 39.6167 -76.3167 205° Southwest 307 353 15,400 -1,579 Descending Potomac TRACON
Mon 01:31:19 PM 39.5500 -76.3667 210° Southwest 300 345 13,900 -1,587 Descending Potomac TRACON
Mon 01:32:25 PM 39.4833 -76.4333 218° Southwest 289 333 12,200 -950 Descending Potomac TRACON
Mon 01:33:19 PM 39.4167 -76.4833 210° Southwest 284 327 12,000 -105 Descending Potomac TRACON
Mon 01:34:19 PM 39.3500 -76.5333 210° Southwest 285 328 12,000  Level Potomac TRACON
Mon 01:35:25 PM 39.2667 -76.5833 205° Southwest 285 328 12,000 -700 Level Potomac TRACON
Mon 01:36:19 PM 39.2000 -76.6333 210° Southwest 284 327 10,600 -1,000 Descending Potomac TRACON
Mon 01:37:25 PM 39.1333 -76.7000 218° Southwest 277 319 10,000 -286 Descending Potomac TRACON
Mon 01:38:25 PM 39.0833 -76.7667 226° Southwest 236 272 10,000 -211 Level Potomac TRACON
Mon 01:39:19 PM 39.0500 -76.8167 229° Southwest 233 268 9,600 -895 Descending Potomac TRACON
Mon 01:40:19 PM 39.0000 -76.8667 218° Southwest 233 268 8,300 -1,289 Descending Potomac TRACON
Mon 01:41:20 PM 38.9667 -76.9333 237° Southwest 225 259 7,000 -1,240 Descending Potomac TRACON
Mon 01:42:20 PM 38.9833 -77.0167 284° West 223 257 5,800 -1,200 Descending Potomac TRACON
Mon 01:43:20 PM 39.0167 -77.0667 311° West 218 251 4,600 -1,148 Descending Potomac TRACON
Mon 01:44:15 PM 39.0167 -77.1333 270° West 208 239 3,600 -939 Descending Potomac TRACON
Mon 01:45:15 PM 38.9667 -77.1500 195° South 190 219 2,800 -800 Descending Potomac TRACON

Login

Don't have an account? Register now (free) for customized features, flight alerts, and more!